createdAt,value
2019-06-20T00:00:04.771Z,20.60
2019-06-20T00:02:33.691Z,20.60
2019-06-20T00:05:00.618Z,20.60
2019-06-20T00:07:27.623Z,20.60
2019-06-20T00:09:56.737Z,20.60
2019-06-20T00:12:23.823Z,20.60
2019-06-20T00:14:55.022Z,20.70
2019-06-20T00:17:21.967Z,20.50
2019-06-20T00:19:48.824Z,20.40
2019-06-20T00:22:16.192Z,20.20
2019-06-20T00:24:43.032Z,20.10
2019-06-20T00:27:12.714Z,20.00
2019-06-20T00:29:41.882Z,19.90
2019-06-20T00:32:09.020Z,19.80
2019-06-20T00:34:36.728Z,19.80
2019-06-20T00:37:03.602Z,19.80
2019-06-20T00:39:30.705Z,19.70
2019-06-20T00:41:59.034Z,19.60
2019-06-20T00:44:26.069Z,19.80
2019-06-20T00:46:56.747Z,19.80
2019-06-20T00:49:23.700Z,19.90
2019-06-20T00:51:51.006Z,19.90
2019-06-20T00:54:20.232Z,19.80
2019-06-20T00:56:47.436Z,19.70
2019-06-20T00:59:18.901Z,19.70
2019-06-20T01:01:46.140Z,19.70
2019-06-20T01:04:13.255Z,19.70
2019-06-20T01:06:40.633Z,19.80
2019-06-20T01:09:08.954Z,19.70
2019-06-20T01:11:40.538Z,19.80
2019-06-20T01:14:07.366Z,19.90
2019-06-20T01:16:34.295Z,19.90
2019-06-20T01:19:01.928Z,19.90
2019-06-20T01:21:29.632Z,20.00
2019-06-20T01:24:00.415Z,19.80
2019-06-20T01:26:27.631Z,19.90
2019-06-20T01:28:54.584Z,19.80
2019-06-20T01:31:22.957Z,19.80
2019-06-20T01:33:50.361Z,19.70
2019-06-20T01:36:18.947Z,19.70
2019-06-20T01:38:46.337Z,19.60
2019-06-20T01:41:13.197Z,19.60
2019-06-20T01:43:50.656Z,19.60
2019-06-20T01:46:15.672Z,19.50
2019-06-20T01:48:44.935Z,19.60
2019-06-20T01:51:11.928Z,19.40
2019-06-20T01:53:41.588Z,19.40
2019-06-20T01:56:08.956Z,19.40
2019-06-20T01:58:35.825Z,19.50
2019-06-20T02:01:06.686Z,19.50
2019-06-20T02:03:33.612Z,19.40
2019-06-20T02:06:03.069Z,19.50
2019-06-20T02:08:30.269Z,19.40
2019-06-20T02:10:57.609Z,19.30
2019-06-20T02:13:28.836Z,19.40
2019-06-20T02:15:55.937Z,19.40
2019-06-20T02:18:27.022Z,19.40
2019-06-20T02:20:56.652Z,19.40
2019-06-20T02:23:29.032Z,19.40
2019-06-20T02:25:55.897Z,19.50
2019-06-20T02:28:26.899Z,19.40
2019-06-20T02:30:54.171Z,19.40
2019-06-20T02:33:21.441Z,19.30
2019-06-20T02:35:51.008Z,19.30
2019-06-20T02:38:17.896Z,19.10
2019-06-20T02:40:48.596Z,19.00
2019-06-20T02:43:16.611Z,19.00
2019-06-20T02:45:43.662Z,18.90
2019-06-20T02:48:11.355Z,18.90
2019-06-20T02:50:38.469Z,19.00
2019-06-20T02:53:08.825Z,18.90
2019-06-20T02:55:36.068Z,18.90
2019-06-20T02:58:03.291Z,18.80
2019-06-20T03:00:40.576Z,18.80
2019-06-20T03:03:07.594Z,18.80
2019-06-20T03:05:34.644Z,18.80
2019-06-20T03:11:08.337Z,19.10
2019-06-20T03:13:35.372Z,19.10
2019-06-20T03:16:02.395Z,19.20
2019-06-20T03:18:33.454Z,19.30
2019-06-20T03:21:00.465Z,19.30
2019-06-20T03:23:35.395Z,19.30
2019-06-20T03:26:02.489Z,19.30
2019-06-20T03:28:36.131Z,19.30
2019-06-20T03:31:03.258Z,19.40
2019-06-20T03:33:41.911Z,19.40
2019-06-20T03:36:09.158Z,19.40
2019-06-20T03:38:41.862Z,19.40
2019-06-20T03:41:09.057Z,19.50
2019-06-20T03:43:41.356Z,19.50
2019-06-20T03:46:08.434Z,19.40
2019-06-20T03:48:43.516Z,19.40
2019-06-20T03:51:10.992Z,19.50
2019-06-20T03:53:45.716Z,19.40
2019-06-20T03:56:14.652Z,19.30
2019-06-20T03:58:46.147Z,19.30
2019-06-20T04:01:14.325Z,19.20
2019-06-20T04:03:49.029Z,19.30
2019-06-20T04:06:16.221Z,19.40
2019-06-20T04:08:55.719Z,19.50
2019-06-20T04:11:32.009Z,19.40
2019-06-20T04:13:58.932Z,19.30
2019-06-20T04:16:34.525Z,19.40
2019-06-20T04:19:01.629Z,19.50
2019-06-20T04:21:35.297Z,19.50
2019-06-20T04:24:02.151Z,19.50
2019-06-20T04:26:37.184Z,19.40
2019-06-20T04:29:04.155Z,19.50
2019-06-20T04:31:39.943Z,19.40
2019-06-20T04:34:12.137Z,19.50
2019-06-20T04:36:41.221Z,19.50
2019-06-20T04:39:18.780Z,19.50
2019-06-20T04:41:43.416Z,19.60
2019-06-20T04:44:24.045Z,19.60
2019-06-20T04:46:59.316Z,19.60
2019-06-20T04:49:27.085Z,19.50
2019-06-20T04:52:04.762Z,19.60
2019-06-20T04:54:31.931Z,19.50
2019-06-20T05:00:04.424Z,19.50
2019-06-20T05:02:35.648Z,19.60
2019-06-20T05:05:12.011Z,19.60
2019-06-20T05:07:38.949Z,19.50
2019-06-20T05:10:15.622Z,19.50
2019-06-20T05:12:43.863Z,19.50
2019-06-20T05:15:13.489Z,19.70
2019-06-20T05:17:50.420Z,19.70
2019-06-20T05:20:25.192Z,19.80
2019-06-20T05:25:43.656Z,20.20
2019-06-20T05:28:14.883Z,20.10
2019-06-20T05:30:47.093Z,20.10
2019-06-20T05:33:17.176Z,20.10
2019-06-20T05:35:48.569Z,20.10
2019-06-20T05:38:20.103Z,19.90
2019-06-20T05:40:48.232Z,19.90
2019-06-20T05:43:20.923Z,19.90
2019-06-20T05:45:48.941Z,19.90
2019-06-20T05:48:22.543Z,19.90
2019-06-20T05:50:49.386Z,20.00
2019-06-20T05:53:26.643Z,20.10
2019-06-20T05:55:53.765Z,20.30
2019-06-20T05:58:23.350Z,20.30
2019-06-20T06:00:51.559Z,20.30
2019-06-20T06:03:29.949Z,20.30
2019-06-20T06:05:59.260Z,20.20
2019-06-20T06:08:28.857Z,20.20
2019-06-20T06:10:55.819Z,20.20
2019-06-20T06:13:26.642Z,20.30
2019-06-20T06:15:53.933Z,20.30
2019-06-20T06:18:21.149Z,20.30
2019-06-20T06:20:51.685Z,20.30
2019-06-20T06:23:19.256Z,20.40
2019-06-20T06:25:46.136Z,20.50
2019-06-20T06:28:15.709Z,20.50
2019-06-20T06:30:43.994Z,20.50
2019-06-20T06:33:16.217Z,20.50
2019-06-20T06:35:44.624Z,20.40
2019-06-20T06:38:22.210Z,20.50
2019-06-20T06:40:45.258Z,20.60
2019-06-20T06:43:14.687Z,20.70
2019-06-20T06:45:42.105Z,20.70
2019-06-20T06:48:09.270Z,20.60
2019-06-20T06:50:40.763Z,20.50
2019-06-20T06:53:07.594Z,20.60
2019-06-20T06:55:34.992Z,20.50
2019-06-20T06:58:03.184Z,20.60
2019-06-20T07:00:30.048Z,20.60
2019-06-20T07:02:57.086Z,20.70
2019-06-20T07:05:26.596Z,20.70
2019-06-20T07:07:53.461Z,20.70
2019-06-20T07:10:26.032Z,20.70
2019-06-20T07:12:53.445Z,20.60
2019-06-20T07:15:20.830Z,20.50
2019-06-20T07:17:50.261Z,20.60
2019-06-20T07:20:17.452Z,20.60
2019-06-20T07:22:45.566Z,20.70
2019-06-20T07:25:14.423Z,20.70
2019-06-20T07:27:42.887Z,20.80
2019-06-20T07:30:15.661Z,20.90
2019-06-20T07:32:42.733Z,21.10
2019-06-20T07:35:17.433Z,21.20
2019-06-20T07:37:44.484Z,21.80
2019-06-20T07:40:14.962Z,22.80
2019-06-20T07:42:42.078Z,23.30
2019-06-20T07:45:09.731Z,23.20
2019-06-20T07:47:39.592Z,22.90
2019-06-20T07:50:06.983Z,22.60
2019-06-20T07:52:36.986Z,22.50
2019-06-20T07:55:05.220Z,22.60
2019-06-20T07:57:32.077Z,22.70
2019-06-20T08:00:03.083Z,22.70
2019-06-20T08:02:32.097Z,22.70
2019-06-20T08:05:12.317Z,22.80
2019-06-20T08:07:45.841Z,23.00
2019-06-20T08:10:15.200Z,23.10
2019-06-20T08:12:42.159Z,23.20
2019-06-20T08:15:15.491Z,23.40
2019-06-20T08:17:40.521Z,23.80
2019-06-20T08:20:13.097Z,23.90
2019-06-20T08:22:40.323Z,23.80
2019-06-20T08:25:07.725Z,23.70
2019-06-20T08:27:50.293Z,23.50
2019-06-20T08:30:23.754Z,23.90
2019-06-20T08:32:51.133Z,24.50
2019-06-20T08:35:22.069Z,24.60
2019-06-20T08:37:49.588Z,24.70
2019-06-20T08:40:18.077Z,24.70
2019-06-20T08:42:46.143Z,24.60
2019-06-20T08:45:18.378Z,24.50
2019-06-20T08:47:45.630Z,24.40
2019-06-20T08:50:12.948Z,24.50
2019-06-20T08:52:40.852Z,24.50
2019-06-20T08:55:08.370Z,24.30
2019-06-20T08:57:40.157Z,24.40
2019-06-20T09:00:08.941Z,24.70
2019-06-20T09:02:40.800Z,24.70
2019-06-20T09:05:07.771Z,24.90
2019-06-20T09:07:35.369Z,25.60
2019-06-20T09:10:05.843Z,26.10
2019-06-20T09:12:32.786Z,26.20
2019-06-20T09:15:01.201Z,26.90
2019-06-20T09:17:28.381Z,27.50
2019-06-20T09:19:55.900Z,28.10
2019-06-20T09:22:23.417Z,28.60
2019-06-20T09:24:52.030Z,28.40
2019-06-20T09:27:22.495Z,28.20
2019-06-20T09:29:49.540Z,28.00
2019-06-20T09:32:16.568Z,27.70
2019-06-20T09:34:44.193Z,28.00
2019-06-20T09:37:11.243Z,28.00
2019-06-20T09:39:41.132Z,27.90
2019-06-20T09:42:08.401Z,27.60
2019-06-20T09:44:35.501Z,27.30
2019-06-20T09:47:04.921Z,26.90
2019-06-20T09:49:31.914Z,26.40
2019-06-20T09:52:02.281Z,26.00
2019-06-20T09:54:30.417Z,26.00
2019-06-20T09:56:58.400Z,26.40
2019-06-20T09:59:27.899Z,26.30
2019-06-20T10:01:56.321Z,26.30
2019-06-20T10:04:27.316Z,26.10
2019-06-20T10:06:54.605Z,26.10
2019-06-20T10:09:25.923Z,25.80
2019-06-20T10:11:54.107Z,25.50
2019-06-20T10:14:23.660Z,25.10
2019-06-20T10:16:53.447Z,24.90
2019-06-20T10:19:19.879Z,24.80
2019-06-20T10:21:49.629Z,24.60
2019-06-20T10:24:16.985Z,24.30
2019-06-20T10:26:49.240Z,24.20
2019-06-20T10:29:16.823Z,24.00
2019-06-20T10:31:47.394Z,23.90
2019-06-20T10:34:14.936Z,23.90
2019-06-20T10:36:41.956Z,24.00
2019-06-20T10:39:11.118Z,23.80
2019-06-20T10:41:38.277Z,23.10
2019-06-20T10:44:10.537Z,22.60
2019-06-20T10:46:37.379Z,22.70
2019-06-20T10:49:09.522Z,23.10
2019-06-20T10:51:44.122Z,23.10
2019-06-20T10:54:12.709Z,23.20
2019-06-20T10:56:40.450Z,23.50
2019-06-20T10:59:12.676Z,23.80
2019-06-20T11:01:39.865Z,23.90
2019-06-20T11:04:12.291Z,23.90
2019-06-20T11:06:41.344Z,24.10
2019-06-20T11:09:12.688Z,24.60
2019-06-20T11:11:41.415Z,25.50
2019-06-20T11:14:12.953Z,26.20
2019-06-20T11:16:40.482Z,26.50
2019-06-20T11:19:12.001Z,26.40
2019-06-20T11:21:39.799Z,26.10
2019-06-20T11:24:11.954Z,25.90
2019-06-20T11:26:39.379Z,25.50
2019-06-20T11:29:06.475Z,25.10
2019-06-20T11:31:41.729Z,24.90
2019-06-20T11:34:07.049Z,24.80
2019-06-20T11:36:38.695Z,24.70
2019-06-20T11:39:06.111Z,24.90
2019-06-20T11:41:36.345Z,25.00
2019-06-20T11:44:02.934Z,25.00
2019-06-20T11:46:29.952Z,24.90
2019-06-20T11:48:57.581Z,24.90
2019-06-20T11:51:26.064Z,24.90
2019-06-20T11:53:54.576Z,24.70
2019-06-20T11:56:21.792Z,24.50
2019-06-20T11:58:48.732Z,24.80
2019-06-20T12:01:16.068Z,25.10
2019-06-20T12:03:44.593Z,25.70
2019-06-20T12:06:11.575Z,26.30
2019-06-20T12:08:39.654Z,26.90
2019-06-20T12:11:07.882Z,26.80
2019-06-20T12:13:34.837Z,26.50
2019-06-20T12:16:03.787Z,26.50
2019-06-20T12:18:31.189Z,26.80
2019-06-20T12:20:58.212Z,26.90
2019-06-20T12:23:26.884Z,27.00
2019-06-20T12:25:53.997Z,27.40
2019-06-20T12:28:23.861Z,27.50
2019-06-20T12:30:50.876Z,27.60
2019-06-20T12:33:17.865Z,27.50
2019-06-20T12:35:46.687Z,27.50
2019-06-20T12:38:15.272Z,27.70
2019-06-20T12:40:44.092Z,27.70
2019-06-20T12:43:11.446Z,27.80
2019-06-20T12:45:39.712Z,28.00
2019-06-20T12:48:08.849Z,28.00
2019-06-20T12:50:35.788Z,28.10
2019-06-20T12:53:03.559Z,28.10
2019-06-20T12:55:31.117Z,28.00
2019-06-20T12:57:58.042Z,28.10
2019-06-20T13:00:27.685Z,28.20
2019-06-20T13:02:54.788Z,28.10
2019-06-20T13:05:22.921Z,27.90
2019-06-20T13:07:50.454Z,27.80
2019-06-20T13:10:18.117Z,27.80
2019-06-20T13:12:46.868Z,27.80
2019-06-20T13:15:14.109Z,27.80
2019-06-20T13:17:42.014Z,27.60
2019-06-20T13:20:10.623Z,27.50
2019-06-20T13:22:39.580Z,27.20
2019-06-20T13:25:08.288Z,27.00
2019-06-20T13:27:35.864Z,26.80
2019-06-20T13:30:04.980Z,26.70
2019-06-20T13:32:32.183Z,26.40
2019-06-20T13:34:59.376Z,26.30
2019-06-20T13:37:30.210Z,26.30
2019-06-20T13:39:57.300Z,26.20
2019-06-20T13:42:31.404Z,26.50
2019-06-20T13:44:58.544Z,26.50
2019-06-20T13:47:26.162Z,26.70
2019-06-20T13:49:53.274Z,26.80
2019-06-20T13:52:20.101Z,26.70
2019-06-20T13:54:48.229Z,26.60
2019-06-20T13:57:15.208Z,26.50
2019-06-20T13:59:43.385Z,26.40
2019-06-20T14:02:12.408Z,26.40
2019-06-20T14:04:41.013Z,26.30
2019-06-20T14:07:10.325Z,26.30
2019-06-20T14:09:37.476Z,26.30
2019-06-20T14:12:06.677Z,26.20
2019-06-20T14:14:34.191Z,26.10
2019-06-20T14:17:01.394Z,25.90
2019-06-20T14:19:29.254Z,25.80
2019-06-20T14:21:57.200Z,25.80
2019-06-20T14:24:24.495Z,25.90
2019-06-20T14:26:54.555Z,25.80
2019-06-20T14:29:21.589Z,25.60
2019-06-20T14:31:51.581Z,25.40
2019-06-20T14:34:18.679Z,25.20
2019-06-20T14:36:47.679Z,25.10
2019-06-20T14:39:15.833Z,25.10
2019-06-20T14:41:43.586Z,24.80
2019-06-20T14:44:12.329Z,24.60
2019-06-20T14:46:39.897Z,24.60
2019-06-20T14:49:06.964Z,24.60
2019-06-20T14:51:34.405Z,24.60
2019-06-20T14:54:01.365Z,24.80
2019-06-20T14:56:28.389Z,24.80
2019-06-20T14:58:55.608Z,24.80
2019-06-20T15:01:22.865Z,25.00
2019-06-20T15:03:51.631Z,25.20
2019-06-20T15:06:18.803Z,25.20
2019-06-20T15:08:47.576Z,25.10
2019-06-20T15:11:16.828Z,25.30
2019-06-20T15:13:44.405Z,25.40
2019-06-20T15:16:13.587Z,25.40
2019-06-20T15:18:40.993Z,25.50
2019-06-20T15:21:07.840Z,25.80
2019-06-20T15:23:35.648Z,26.10
2019-06-20T15:26:02.854Z,26.40
2019-06-20T15:28:30.044Z,26.30
2019-06-20T15:30:57.353Z,26.50
2019-06-20T15:33:24.780Z,26.50
2019-06-20T15:35:55.206Z,26.40
2019-06-20T15:38:22.483Z,26.30
2019-06-20T15:40:49.840Z,26.30
2019-06-20T15:43:18.627Z,26.40
2019-06-20T15:45:48.391Z,26.40
2019-06-20T15:48:15.795Z,26.40
2019-06-20T15:50:42.755Z,26.40
2019-06-20T15:53:09.715Z,26.50
2019-06-20T15:55:37.216Z,26.60
2019-06-20T15:58:04.403Z,26.50
2019-06-20T16:00:35.276Z,26.30
2019-06-20T16:03:09.879Z,26.10
2019-06-20T16:05:31.969Z,26.00
2019-06-20T16:07:59.103Z,25.90
2019-06-20T16:10:26.076Z,25.90
2019-06-20T16:12:53.904Z,25.90
2019-06-20T16:15:22.500Z,25.80
2019-06-20T16:17:49.553Z,25.70
2019-06-20T16:20:16.728Z,25.70
2019-06-20T16:22:43.568Z,25.80
2019-06-20T16:25:10.920Z,25.80
2019-06-20T16:27:37.881Z,25.80
2019-06-20T16:30:06.209Z,25.70
2019-06-20T16:32:33.270Z,25.60
2019-06-20T16:35:00.468Z,25.60
2019-06-20T16:37:30.729Z,25.70
2019-06-20T16:39:57.538Z,25.60
2019-06-20T16:42:24.528Z,25.70
2019-06-20T16:44:52.445Z,25.70
2019-06-20T16:47:19.618Z,25.70
2019-06-20T16:49:47.844Z,25.60
2019-06-20T16:52:14.970Z,25.60
2019-06-20T16:54:42.196Z,25.60
2019-06-20T16:57:12.127Z,25.70
2019-06-20T16:59:39.116Z,25.80
2019-06-20T17:02:09.953Z,25.70
2019-06-20T17:04:37.899Z,25.70
2019-06-20T17:07:05.057Z,25.80
2019-06-20T17:09:32.887Z,25.70
2019-06-20T17:12:00.077Z,25.70
2019-06-20T17:14:28.249Z,25.60
2019-06-20T17:16:55.253Z,25.50
2019-06-20T17:19:22.348Z,25.50
2019-06-20T17:21:50.304Z,25.40
2019-06-20T17:24:17.405Z,25.30
2019-06-20T17:26:44.850Z,25.10
2019-06-20T17:29:12.888Z,25.10
2019-06-20T17:31:40.086Z,25.00
2019-06-20T17:34:07.291Z,24.90
2019-06-20T17:36:34.675Z,24.80
2019-06-20T17:39:01.684Z,24.80
2019-06-20T17:41:31.781Z,24.80
2019-06-20T17:43:59.029Z,24.70
2019-06-20T17:46:26.206Z,24.60
2019-06-20T17:48:54.240Z,24.50
2019-06-20T17:51:21.332Z,24.50
2019-06-20T17:53:49.759Z,24.40
2019-06-20T17:56:18.046Z,24.50
2019-06-20T17:58:45.320Z,24.50
2019-06-20T18:01:14.638Z,24.70
2019-06-20T18:03:41.862Z,24.60
2019-06-20T18:06:10.281Z,24.60
2019-06-20T18:08:37.477Z,24.60
2019-06-20T18:11:04.963Z,24.60
2019-06-20T18:13:35.213Z,24.50
2019-06-20T18:16:02.974Z,24.30
2019-06-20T18:18:30.930Z,24.20
2019-06-20T18:20:58.283Z,24.20
2019-06-20T18:23:25.406Z,24.10
2019-06-20T18:25:53.533Z,24.00
2019-06-20T18:28:20.606Z,24.10
2019-06-20T18:30:47.579Z,24.00
2019-06-20T18:33:15.788Z,23.90
2019-06-20T18:35:42.761Z,23.90
2019-06-20T18:38:09.881Z,23.90
2019-06-20T18:40:37.336Z,23.70
2019-06-20T18:43:04.311Z,23.70
2019-06-20T18:45:33.903Z,23.70
2019-06-20T18:48:00.794Z,23.70
2019-06-20T18:50:27.886Z,23.60
2019-06-20T18:52:55.971Z,23.40
2019-06-20T18:55:22.942Z,23.40
2019-06-20T18:57:49.884Z,23.20
2019-06-20T19:00:33.569Z,23.10
2019-06-20T19:02:47.682Z,23.00
2019-06-20T19:05:17.325Z,22.90
2019-06-20T19:07:44.549Z,22.90
2019-06-20T19:10:14.303Z,22.90
2019-06-20T19:12:41.525Z,22.90
2019-06-20T19:15:09.363Z,23.00
2019-06-20T19:17:39.063Z,23.00
2019-06-20T19:20:06.442Z,23.00
2019-06-20T19:22:35.579Z,22.80
2019-06-20T19:25:04.212Z,23.00
2019-06-20T19:27:45.055Z,22.90
2019-06-20T19:30:04.139Z,22.80
2019-06-20T19:32:31.228Z,22.80
2019-06-20T19:35:02.581Z,22.90
2019-06-20T19:37:28.992Z,22.80
2019-06-20T19:39:55.971Z,22.80
2019-06-20T19:42:22.905Z,22.70
2019-06-20T19:44:52.705Z,22.70
2019-06-20T19:47:19.569Z,22.60
2019-06-20T19:49:48.893Z,22.40
2019-06-20T19:52:16.530Z,22.30
2019-06-20T19:54:44.940Z,22.10
2019-06-20T19:57:15.983Z,22.10
2019-06-20T19:59:46.018Z,22.10
2019-06-20T20:02:16.421Z,22.10
2019-06-20T20:04:43.588Z,21.90
2019-06-20T20:07:11.343Z,21.80
2019-06-20T20:09:39.413Z,21.80
2019-06-20T20:12:06.409Z,21.70
2019-06-20T20:14:33.320Z,21.60
2019-06-20T20:17:02.303Z,21.60
2019-06-20T20:19:29.441Z,21.50
2019-06-20T20:21:56.735Z,21.40
2019-06-20T20:24:26.007Z,21.30
2019-06-20T20:26:56.438Z,21.40
2019-06-20T20:29:28.805Z,21.20
2019-06-20T20:31:56.476Z,21.30
2019-06-20T20:34:23.613Z,21.20
2019-06-20T20:36:50.474Z,21.10
2019-06-20T20:39:17.313Z,21.00
2019-06-20T20:41:47.779Z,21.00
2019-06-20T20:44:14.888Z,21.00
2019-06-20T20:47:01.403Z,20.90
2019-06-20T20:49:28.257Z,20.90
2019-06-20T20:52:01.180Z,20.80
2019-06-20T20:54:30.604Z,20.80
2019-06-20T20:57:07.637Z,20.70
2019-06-20T20:59:34.687Z,20.80
2019-06-20T21:02:01.638Z,20.80
2019-06-20T21:04:28.906Z,20.70
2019-06-20T21:06:59.954Z,20.80
2019-06-20T21:09:27.024Z,20.80
2019-06-20T21:11:54.050Z,20.80
2019-06-20T21:14:20.912Z,20.70
2019-06-20T21:16:48.451Z,20.60
2019-06-20T21:19:22.726Z,20.60
2019-06-20T21:21:55.777Z,20.50
2019-06-20T21:24:22.825Z,20.40
2019-06-20T21:26:57.812Z,20.40
2019-06-20T21:29:24.797Z,20.30
2019-06-20T21:31:51.630Z,20.30
2019-06-20T21:34:18.554Z,20.30
2019-06-20T21:36:49.651Z,20.40
2019-06-20T21:39:16.889Z,20.10
2019-06-20T21:41:44.137Z,20.10
2019-06-20T21:44:11.321Z,20.10
2019-06-20T21:46:38.472Z,20.20
2019-06-20T21:49:05.676Z,19.90
2019-06-20T21:51:36.059Z,19.80
2019-06-20T21:54:03.334Z,19.70
2019-06-20T21:56:30.148Z,19.90
2019-06-20T21:58:58.042Z,19.80
2019-06-20T22:01:28.309Z,19.90
2019-06-20T22:03:55.401Z,20.10
2019-06-20T22:06:34.463Z,20.10
2019-06-20T22:09:12.080Z,20.20
2019-06-20T22:11:41.132Z,20.30
2019-06-20T22:14:08.249Z,20.20
2019-06-20T22:16:35.235Z,20.30
2019-06-20T22:19:02.168Z,20.60
2019-06-20T22:21:29.028Z,20.60
2019-06-20T22:23:55.953Z,20.60
2019-06-20T22:26:22.891Z,20.60
2019-06-20T22:28:54.841Z,20.50
2019-06-20T22:31:22.177Z,20.50
2019-06-20T22:33:50.166Z,20.30
2019-06-20T22:36:20.353Z,20.30
2019-06-20T22:38:48.767Z,20.20
2019-06-20T22:41:16.152Z,20.10
2019-06-20T22:43:43.189Z,20.00
2019-06-20T22:46:10.032Z,19.80
2019-06-20T22:48:37.427Z,19.70
2019-06-20T22:51:04.582Z,19.70
2019-06-20T22:53:31.556Z,19.50
2019-06-20T22:55:58.397Z,19.40
2019-06-20T22:58:25.385Z,19.50
2019-06-20T23:00:52.233Z,19.40
2019-06-20T23:03:19.088Z,19.50
2019-06-20T23:05:46.035Z,19.50
2019-06-20T23:08:15.998Z,19.40
2019-06-20T23:10:44.453Z,19.40
2019-06-20T23:13:11.301Z,19.30
2019-06-20T23:15:38.808Z,19.40
2019-06-20T23:18:06.000Z,19.40
2019-06-20T23:20:33.035Z,19.40
2019-06-20T23:23:00.105Z,19.40
2019-06-20T23:25:27.197Z,19.30
2019-06-20T23:27:54.504Z,19.30
2019-06-20T23:30:27.350Z,19.30
2019-06-20T23:32:54.438Z,19.30
2019-06-20T23:35:21.413Z,19.20
2019-06-20T23:37:48.944Z,19.20
2019-06-20T23:40:16.497Z,19.20
2019-06-20T23:42:43.414Z,19.30
2019-06-20T23:45:10.669Z,19.30
2019-06-20T23:47:38.705Z,19.30
2019-06-20T23:50:10.214Z,19.30
2019-06-20T23:52:39.436Z,19.40
2019-06-20T23:55:06.899Z,19.60
2019-06-20T23:57:33.776Z,19.60
